Time;durP1;ratioP1;P1;durP2;ratioP2;P2;SDS_P1;SDS_P2;PMS_P1;PMS_P2;Temp;Humidity;BMP_temperature;BMP_pressure;BME280_temperature;BME280_humidity;BME280_pressure;Samples;Min_cycle;Max_cycle;Signal;HPM_P1;HPM_P2
2021/06/11 00:01:40;;;;;;;4.57;0.90;;;37.00;7.60;;;;;;4768421;30;20445;-67
2021/06/11 00:04:06;;;;;;;5.00;0.80;;;37.00;7.30;;;;;;4769748;30;20076;-69
2021/06/11 00:06:33;;;;;;;9.00;1.02;;;36.90;7.20;;;;;;4767905;30;20080;-67
2021/06/11 00:09:00;;;;;;;2.38;0.50;;;37.00;7.10;;;;;;4767696;30;20072;-68
2021/06/11 00:11:27;;;;;;;4.40;0.90;;;37.00;6.90;;;;;;4767930;30;20088;-67
2021/06/11 00:13:54;;;;;;;3.13;0.90;;;36.80;6.70;;;;;;4768117;30;20129;-68
2021/06/11 00:16:21;;;;;;;4.22;1.20;;;36.70;6.80;;;;;;4768084;30;20084;-69
2021/06/11 00:18:48;;;;;;;6.68;1.00;;;36.70;7.10;;;;;;4768020;30;20080;-69
2021/06/11 00:21:14;;;;;;;3.72;0.80;;;36.60;7.10;;;;;;4767890;30;20153;-67
2021/06/11 00:23:41;;;;;;;3.70;0.70;;;36.80;7.10;;;;;;4767749;30;20098;-67
2021/06/11 00:26:14;;;;;;;2.95;0.70;;;36.80;6.70;;;;;;4769453;30;20106;-69
2021/06/11 00:28:41;;;;;;;6.45;0.85;;;36.80;6.80;;;;;;4769737;30;20094;-68
2021/06/11 00:31:07;;;;;;;4.38;0.88;;;36.80;6.50;;;;;;4769999;30;20152;-68
2021/06/11 00:33:34;;;;;;;6.63;1.02;;;36.70;6.70;;;;;;4769034;30;20095;-67
2021/06/11 00:36:00;;;;;;;4.43;0.98;;;36.80;6.90;;;;;;4769722;30;20420;-68
2021/06/11 00:38:31;;;;;;;3.20;0.80;;;36.80;7.00;;;;;;4768589;30;20138;-67
2021/06/11 00:40:58;;;;;;;6.05;0.90;;;36.80;7.00;;;;;;4767315;30;20648;-67
2021/06/11 00:43:25;;;;;;;5.15;0.90;;;36.60;6.80;;;;;;4768493;30;20083;-67
2021/06/11 00:45:52;;;;;;;5.93;1.13;;;36.60;7.30;;;;;;4768728;30;20088;-68
2021/06/11 00:48:18;;;;;;;6.75;1.08;;;36.50;7.30;;;;;;4768652;30;20091;-67
2021/06/11 00:50:45;;;;;;;2.65;0.80;;;36.50;7.30;;;;;;4768635;30;20103;-66
2021/06/11 00:53:16;;;;;;;4.72;0.90;;;36.50;7.10;;;;;;4769579;30;20491;-69
2021/06/11 00:55:45;;;;;;;5.13;0.95;;;36.50;7.30;;;;;;4767163;30;20084;-68
2021/06/11 00:58:16;;;;;;;7.43;1.13;;;36.40;8.10;;;;;;4769018;30;20112;-67
2021/06/11 01:01:00;;;;;;;8.05;1.05;;;36.40;8.70;;;;;;4769016;30;20112;-69
2021/06/11 01:03:26;;;;;;;3.28;0.70;;;36.50;8.70;;;;;;4767585;30;20512;-68
2021/06/11 01:05:53;;;;;;;2.58;0.98;;;36.40;8.30;;;;;;4767226;30;20080;-68
2021/06/11 01:08:21;;;;;;;6.57;1.48;;;36.40;8.30;;;;;;4767991;30;20084;-68
2021/06/11 01:10:49;;;;;;;9.57;1.50;;;36.30;8.50;;;;;;4772065;30;20119;-68
2021/06/11 01:13:17;;;;;;;7.93;1.20;;;36.20;8.50;;;;;;4771889;30;20073;-68
2021/06/11 01:15:47;;;;;;;3.15;1.10;;;36.20;8.50;;;;;;4771800;30;20084;-68
2021/06/11 01:18:13;;;;;;;8.13;1.00;;;36.00;8.70;;;;;;4771812;30;20167;-67
2021/06/11 01:20:41;;;;;;;3.75;1.00;;;35.90;8.90;;;;;;4771654;30;20104;-67
2021/06/11 01:23:26;;;;;;;6.85;1.10;;;35.90;8.50;;;;;;4770697;30;20144;-68
2021/06/11 01:26:24;;;;;;;5.68;1.20;;;35.80;8.60;;;;;;4771541;30;20076;-68
2021/06/11 01:29:01;;;;;;;5.13;1.30;;;35.90;8.50;;;;;;4770097;30;20088;-67
2021/06/11 01:31:30;;;;;;;11.65;1.00;;;35.70;9.00;;;;;;4770280;30;20083;-67
2021/06/11 01:34:09;;;;;;;4.75;1.48;;;35.60;8.80;;;;;;4771491;30;20154;-68
2021/06/11 01:36:45;;;;;;;4.03;1.10;;;35.50;9.10;;;;;;4771735;30;20095;-67
2021/06/11 01:39:14;;;;;;;6.68;0.90;;;35.40;8.90;;;;;;4771462;30;20088;-68
2021/06/11 01:41:43;;;;;;;7.75;1.08;;;35.20;8.80;;;;;;4770359;30;20142;-68
2021/06/11 01:44:13;;;;;;;10.35;1.02;;;35.20;8.90;;;;;;4771240;30;20080;-68
2021/06/11 01:46:41;;;;;;;10.45;0.93;;;35.10;8.60;;;;;;4770837;30;20565;-67
2021/06/11 01:49:08;;;;;;;6.20;1.20;;;35.00;8.90;;;;;;4770467;30;20167;-68
2021/06/11 01:51:37;;;;;;;7.30;1.08;;;34.90;9.30;;;;;;4771456;30;20084;-69
2021/06/11 01:54:07;;;;;;;6.20;1.00;;;34.80;9.60;;;;;;4771495;30;20079;-69
2021/06/11 01:56:35;;;;;;;5.18;1.02;;;34.70;10.00;;;;;;4770370;30;20114;-70
2021/06/11 01:59:02;;;;;;;7.10;1.17;;;34.70;10.10;;;;;;4771760;30;20112;-68
2021/06/11 02:01:32;;;;;;;9.85;1.20;;;34.60;10.30;;;;;;4770996;30;20163;-69
2021/06/11 02:03:59;;;;;;;5.00;1.08;;;34.40;10.80;;;;;;4770856;30;20076;-69
2021/06/11 02:06:27;;;;;;;5.00;1.00;;;34.30;10.20;;;;;;4769657;30;20091;-67
2021/06/11 02:08:54;;;;;;;3.53;1.05;;;34.20;10.20;;;;;;4754910;30;20073;-66
2021/06/11 02:11:21;;;;;;;5.40;1.00;;;34.10;9.60;;;;;;4770724;30;20080;-67
2021/06/11 02:13:54;;;;;;;5.43;1.10;;;34.00;9.80;;;;;;4770863;30;20084;-68
2021/06/11 02:16:24;;;;;;;2.72;0.90;;;33.90;9.90;;;;;;4770686;30;20080;-67
2021/06/11 02:18:51;;;;;;;4.00;0.95;;;33.90;10.00;;;;;;4770484;30;20072;-67
2021/06/11 02:21:30;;;;;;;6.22;1.23;;;33.80;9.90;;;;;;4770721;30;20128;-67
2021/06/11 02:23:57;;;;;;;4.28;1.25;;;33.60;10.10;;;;;;4770792;30;20137;-68
2021/06/11 02:26:25;;;;;;;5.63;1.10;;;33.60;10.40;;;;;;4770646;30;20523;-68
2021/06/11 02:28:52;;;;;;;9.45;1.00;;;33.50;10.50;;;;;;4771044;30;20143;-68
2021/06/11 02:31:20;;;;;;;5.95;1.00;;;33.40;10.40;;;;;;4770508;30;20110;-67
2021/06/11 02:33:46;;;;;;;7.32;1.02;;;33.30;9.90;;;;;;4770751;30;20084;-67
2021/06/11 02:36:14;;;;;;;6.78;0.90;;;33.30;9.80;;;;;;4770512;30;20084;-68
2021/06/11 02:38:40;;;;;;;6.47;1.65;;;33.20;9.70;;;;;;4770377;30;20120;-67
2021/06/11 02:41:10;;;;;;;6.82;1.45;;;33.10;9.40;;;;;;4770667;30;20104;-67
2021/06/11 02:43:40;;;;;;;8.70;1.73;;;33.00;9.60;;;;;;4769546;30;20077;-68
2021/06/11 02:46:10;;;;;;;12.43;1.75;;;33.00;9.70;;;;;;4769989;30;20068;-68
2021/06/11 02:48:48;;;;;;;10.75;1.60;;;32.90;10.00;;;;;;4770169;30;20080;-70
2021/06/11 02:51:29;;;;;;;5.90;1.05;;;32.90;9.90;;;;;;4770135;30;20076;-70
2021/06/11 02:53:57;;;;;;;7.53;1.30;;;32.80;9.60;;;;;;4769736;30;20084;-72
2021/06/11 02:56:38;;;;;;;7.72;1.30;;;32.70;9.80;;;;;;4769740;30;20072;-69
2021/06/11 02:59:10;;;;;;;4.70;0.98;;;32.70;9.90;;;;;;4768555;30;20092;-69
2021/06/11 03:01:43;;;;;;;7.53;1.17;;;32.60;9.90;;;;;;4768825;30;20095;-69
2021/06/11 03:04:11;;;;;;;7.65;1.25;;;32.50;10.10;;;;;;4769447;30;20081;-71
2021/06/11 03:06:38;;;;;;;9.88;1.50;;;32.50;10.10;;;;;;4770173;30;20080;-68
2021/06/11 03:09:09;;;;;;;12.18;1.40;;;32.40;10.20;;;;;;4768582;30;20076;-68
2021/06/11 03:11:42;;;;;;;12.13;1.60;;;32.30;10.20;;;;;;4769990;30;20138;-67
2021/06/11 03:14:10;;;;;;;8.18;2.10;;;32.30;10.10;;;;;;4769489;30;20106;-67
2021/06/11 03:16:41;;;;;;;13.95;1.80;;;32.20;10.50;;;;;;4769816;30;20593;-67
2021/06/11 03:19:11;;;;;;;9.95;1.42;;;32.20;11.60;;;;;;4769894;30;20080;-66
2021/06/11 03:21:43;;;;;;;13.45;2.25;;;32.20;12.50;;;;;;4769726;30;20084;-68
2021/06/11 03:24:27;;;;;;;13.70;2.42;;;32.10;13.40;;;;;;4769515;30;20485;-68
2021/06/11 03:27:10;;;;;;;18.85;3.00;;;32.10;14.10;;;;;;4769050;30;20107;-67
2021/06/11 03:29:44;;;;;;;15.75;2.80;;;32.00;14.60;;;;;;4769181;30;20080;-67
2021/06/11 03:32:30;;;;;;;18.17;2.65;;;31.90;15.00;;;;;;4768662;30;20566;-68
2021/06/11 03:35:04;;;;;;;22.25;2.83;;;31.80;15.10;;;;;;4768842;30;20130;-68
2021/06/11 03:37:32;;;;;;;26.17;3.15;;;31.70;15.30;;;;;;4768343;30;20199;-66
2021/06/11 03:40:10;;;;;;;23.42;2.40;;;31.60;15.50;;;;;;4768858;30;20103;-67
2021/06/11 03:42:37;;;;;;;23.25;3.63;;;31.50;15.60;;;;;;4769081;30;20141;-66
2021/06/11 03:45:04;;;;;;;27.40;3.75;;;31.50;15.70;;;;;;4769789;30;20072;-67
2021/06/11 03:47:34;;;;;;;34.25;4.47;;;31.40;15.70;;;;;;4769082;30;20080;-67
2021/06/11 03:50:03;;;;;;;22.30;3.53;;;31.40;15.80;;;;;;4769222;30;20119;-67
2021/06/11 03:52:32;;;;;;;30.52;4.47;;;31.30;15.80;;;;;;4767921;30;20103;-67
2021/06/11 03:55:08;;;;;;;30.63;3.25;;;31.20;15.60;;;;;;4769245;30;20088;-68
2021/06/11 03:57:36;;;;;;;20.75;3.63;;;31.20;15.70;;;;;;4768969;30;20076;-67
2021/06/11 04:00:04;;;;;;;25.23;3.40;;;31.10;15.50;;;;;;4769585;30;20120;-66
2021/06/11 04:02:30;;;;;;;20.58;3.35;;;31.10;15.40;;;;;;4768802;30;20505;-67
2021/06/11 04:04:58;;;;;;;22.80;3.40;;;31.10;15.30;;;;;;4767919;30;20157;-67
2021/06/11 04:07:42;;;;;;;23.02;3.17;;;30.90;15.20;;;;;;4768056;30;20076;-66
2021/06/11 04:10:14;;;;;;;26.88;3.72;;;30.90;15.20;;;;;;4768879;30;20115;-67
2021/06/11 04:12:54;;;;;;;13.18;3.20;;;30.80;15.00;;;;;;4767175;30;20080;-68
2021/06/11 04:15:22;;;;;;;17.13;2.65;;;30.80;15.10;;;;;;4767308;30;20106;-66
2021/06/11 04:17:55;;;;;;;17.02;2.95;;;30.70;15.10;;;;;;4767724;30;20093;-67
2021/06/11 04:20:27;;;;;;;18.63;3.00;;;30.70;15.10;;;;;;4767645;30;20114;-66
2021/06/11 04:22:57;;;;;;;12.65;2.53;;;30.70;14.90;;;;;;4768732;30;20109;-67
2021/06/11 04:25:29;;;;;;;22.17;3.15;;;30.60;14.90;;;;;;4769052;30;20138;-68
2021/06/11 04:27:58;;;;;;;16.85;3.10;;;30.50;14.90;;;;;;4767923;30;20102;-67
2021/06/11 04:30:25;;;;;;;18.88;3.83;;;30.50;14.90;;;;;;4768029;30;20076;-68
2021/06/11 04:32:53;;;;;;;19.60;3.42;;;30.50;14.80;;;;;;4766655;30;20138;-66
2021/06/11 04:35:33;;;;;;;16.33;2.75;;;30.40;14.80;;;;;;4768601;30;20522;-68
2021/06/11 04:37:59;;;;;;;22.38;3.80;;;30.30;14.70;;;;;;4768628;30;20115;-67
2021/06/11 04:40:26;;;;;;;23.58;3.30;;;30.30;14.80;;;;;;4768784;30;20128;-68
2021/06/11 04:42:53;;;;;;;15.23;3.60;;;30.10;14.70;;;;;;4767493;30;20109;-68
2021/06/11 04:45:20;;;;;;;18.55;3.20;;;30.10;15.00;;;;;;4772364;30;20199;-68
2021/06/11 04:47:47;;;;;;;33.58;4.82;;;30.00;15.00;;;;;;4772677;30;20072;-68
2021/06/11 04:50:13;;;;;;;33.28;4.70;;;30.00;15.30;;;;;;4770560;30;20096;-67
2021/06/11 04:52:40;;;;;;;32.17;3.90;;;29.90;15.30;;;;;;4772116;30;20088;-67
2021/06/11 04:55:07;;;;;;;31.80;4.50;;;29.80;15.40;;;;;;4771194;30;20091;-67
2021/06/11 04:57:33;;;;;;;29.05;2.83;;;29.70;15.50;;;;;;4770737;30;20543;-67
2021/06/11 05:00:00;;;;;;;24.73;2.92;;;29.60;15.60;;;;;;4772534;30;20108;-68
2021/06/11 05:02:26;;;;;;;17.30;2.17;;;29.50;15.50;;;;;;4771983;30;20110;-67
2021/06/11 05:04:53;;;;;;;17.40;2.45;;;29.40;15.50;;;;;;4772055;30;20088;-68
2021/06/11 05:07:19;;;;;;;12.65;2.50;;;29.30;15.50;;;;;;4772261;30;20159;-67
2021/06/11 05:09:46;;;;;;;13.85;2.70;;;29.30;15.50;;;;;;4771997;30;20072;-67
2021/06/11 05:12:12;;;;;;;17.65;2.55;;;29.20;15.40;;;;;;4770610;30;20462;-66
2021/06/11 05:14:39;;;;;;;19.55;3.10;;;29.10;15.50;;;;;;4771686;30;20084;-66
2021/06/11 05:17:05;;;;;;;17.23;2.97;;;29.10;15.70;;;;;;4772131;30;20224;-67
2021/06/11 05:19:32;;;;;;;17.05;2.70;;;29.10;15.50;;;;;;4771721;30;20104;-68
2021/06/11 05:21:59;;;;;;;22.38;3.00;;;29.00;15.50;;;;;;4770802;30;20076;-68
2021/06/11 05:24:25;;;;;;;10.77;2.65;;;28.90;15.60;;;;;;4771869;30;20091;-68
2021/06/11 05:26:52;;;;;;;20.05;3.40;;;28.90;15.60;;;;;;4772063;30;20076;-67
2021/06/11 05:29:18;;;;;;;15.23;3.78;;;28.70;15.80;;;;;;4771983;30;20091;-67
2021/06/11 05:31:45;;;;;;;10.88;3.38;;;28.60;15.80;;;;;;4772452;30;20075;-66
2021/06/11 05:34:11;;;;;;;14.52;5.55;;;28.60;15.90;;;;;;4771293;30;20167;-67
2021/06/11 05:36:38;;;;;;;18.58;5.10;;;28.40;15.90;;;;;;4770154;30;20083;-68
2021/06/11 05:39:05;;;;;;;14.73;3.90;;;28.40;15.90;;;;;;4771442;30;20175;-67
2021/06/11 05:41:32;;;;;;;17.75;3.90;;;28.30;15.90;;;;;;4771309;30;20088;-66
2021/06/11 05:43:58;;;;;;;31.80;12.18;;;28.30;16.00;;;;;;4771337;30;20180;-66
2021/06/11 05:46:25;;;;;;;13.18;3.20;;;28.20;15.90;;;;;;4771423;30;20558;-68
2021/06/11 05:48:51;;;;;;;15.00;2.47;;;28.20;15.60;;;;;;4769804;30;20195;-67
2021/06/11 05:51:18;;;;;;;17.13;3.05;;;28.10;15.30;;;;;;4771371;30;20072;-66
2021/06/11 05:53:44;;;;;;;8.35;2.38;;;28.10;15.40;;;;;;4770531;30;20215;-66
2021/06/11 05:56:12;;;;;;;15.77;3.17;;;28.10;15.40;;;;;;4771340;30;20104;-67
2021/06/11 05:58:39;;;;;;;13.60;2.53;;;28.00;15.20;;;;;;4771334;30;20180;-66
2021/06/11 06:01:06;;;;;;;13.75;2.85;;;28.00;15.30;;;;;;4770337;30;20100;-67
2021/06/11 06:03:33;;;;;;;17.42;2.50;;;27.90;15.40;;;;;;4770389;30;20076;-66
2021/06/11 06:06:00;;;;;;;14.20;2.15;;;27.90;15.10;;;;;;4770209;30;20088;-68
2021/06/11 06:08:26;;;;;;;12.02;2.13;;;27.80;15.10;;;;;;4770597;30;20163;-66
2021/06/11 06:10:53;;;;;;;10.40;1.75;;;27.70;15.10;;;;;;4770679;30;20171;-67
2021/06/11 06:13:20;;;;;;;11.85;1.55;;;27.70;15.00;;;;;;4771086;30;20145;-66
2021/06/11 06:15:47;;;;;;;13.55;1.88;;;27.60;15.00;;;;;;4770758;30;20088;-67
2021/06/11 06:18:13;;;;;;;7.25;1.95;;;27.60;15.40;;;;;;4770749;30;20098;-67
2021/06/11 06:20:42;;;;;;;9.65;1.70;;;27.50;15.30;;;;;;4770584;30;20104;-68
2021/06/11 06:23:08;;;;;;;8.50;1.70;;;27.50;15.60;;;;;;4770718;30;20107;-67
2021/06/11 06:25:35;;;;;;;7.43;1.90;;;27.40;15.40;;;;;;4770942;30;20081;-69
2021/06/11 06:28:01;;;;;;;7.03;1.88;;;27.30;15.50;;;;;;4770864;30;20084;-66
2021/06/11 06:30:28;;;;;;;7.13;1.95;;;27.30;15.10;;;;;;4770498;30;20087;-66
2021/06/11 06:32:54;;;;;;;10.20;2.13;;;27.20;14.90;;;;;;4770636;30;20603;-67
2021/06/11 06:35:21;;;;;;;6.03;1.58;;;27.20;14.80;;;;;;4770587;30;20092;-66
2021/06/11 06:37:47;;;;;;;10.30;1.75;;;27.10;14.40;;;;;;4770512;30;20119;-66
2021/06/11 06:40:14;;;;;;;9.25;1.90;;;27.10;14.30;;;;;;4769381;30;20107;-66
2021/06/11 06:42:42;;;;;;;8.00;1.92;;;27.10;14.60;;;;;;4770551;30;20132;-66
2021/06/11 06:45:12;;;;;;;17.92;1.92;;;27.10;14.60;;;;;;4770584;30;20505;-66
2021/06/11 06:47:44;;;;;;;9.93;1.90;;;27.00;14.40;;;;;;4770652;30;20169;-65
2021/06/11 06:50:19;;;;;;;10.60;1.83;;;27.00;14.30;;;;;;4770122;30;20080;-67
2021/06/11 06:52:46;;;;;;;13.02;1.35;;;27.00;14.10;;;;;;4770218;30;20080;-66
2021/06/11 06:55:13;;;;;;;10.18;1.88;;;26.90;14.00;;;;;;4770238;30;20161;-66
2021/06/11 06:57:39;;;;;;;7.75;1.50;;;26.80;14.00;;;;;;4770000;30;20080;-66
2021/06/11 07:00:08;;;;;;;10.20;1.73;;;26.80;14.00;;;;;;4770239;30;20100;-66
2021/06/11 07:02:35;;;;;;;6.80;1.67;;;26.80;13.30;;;;;;4770467;30;20448;-67
2021/06/11 07:05:02;;;;;;;10.60;1.92;;;26.70;13.80;;;;;;4768579;30;20080;-67
2021/06/11 07:07:29;;;;;;;6.88;1.83;;;26.70;13.20;;;;;;4768166;30;20080;-66
2021/06/11 07:09:55;;;;;;;6.95;1.90;;;26.60;13.10;;;;;;4782669;30;20084;-65
2021/06/11 07:12:24;;;;;;;15.65;2.30;;;26.60;13.20;;;;;;4769922;30;20072;-66
2021/06/11 07:14:50;;;;;;;6.45;1.83;;;26.50;13.20;;;;;;4769522;30;20134;-67
2021/06/11 07:17:17;;;;;;;6.15;1.55;;;26.50;13.30;;;;;;4769822;30;20075;-67
2021/06/11 07:19:44;;;;;;;6.18;1.48;;;26.50;13.20;;;;;;4769365;30;20103;-67
2021/06/11 07:22:11;;;;;;;7.95;1.70;;;26.50;12.60;;;;;;4769595;30;20506;-66
2021/06/11 07:24:38;;;;;;;5.50;1.50;;;26.40;12.70;;;;;;4769399;30;20107;-67
2021/06/11 07:27:05;;;;;;;8.02;1.52;;;26.40;12.60;;;;;;4768296;30;20443;-66
2021/06/11 07:29:32;;;;;;;10.68;1.67;;;26.40;12.50;;;;;;4768367;30;20084;-65
2021/06/11 07:31:59;;;;;;;5.47;1.42;;;26.40;12.40;;;;;;4768729;30;20088;-65
2021/06/11 07:34:26;;;;;;;6.80;1.05;;;26.40;12.30;;;;;;4769879;30;20178;-66
2021/06/11 07:36:52;;;;;;;8.68;1.30;;;26.40;12.50;;;;;;4769383;30;20083;-67
2021/06/11 07:39:21;;;;;;;4.85;1.15;;;26.30;12.50;;;;;;4768640;30;20510;-66
2021/06/11 07:41:49;;;;;;;8.63;1.33;;;26.30;12.50;;;;;;4768300;30;20106;-66
2021/06/11 07:44:16;;;;;;;4.30;1.35;;;26.30;12.60;;;;;;4769501;30;20086;-66
2021/06/11 07:46:42;;;;;;;5.80;1.10;;;26.30;12.40;;;;;;4769259;30;20080;-67
2021/06/11 07:49:13;;;;;;;5.03;1.20;;;26.30;12.20;;;;;;4769740;30;20072;-65
2021/06/11 07:51:39;;;;;;;6.82;1.38;;;26.30;12.10;;;;;;4769928;30;20112;-66
2021/06/11 07:54:07;;;;;;;11.70;1.75;;;26.20;12.10;;;;;;4769707;30;20138;-66
2021/06/11 07:56:36;;;;;;;6.13;1.73;;;26.20;12.00;;;;;;4768109;30;20146;-65
2021/06/11 07:59:03;;;;;;;8.20;1.73;;;26.30;11.80;;;;;;4766573;30;20179;-65
2021/06/11 08:01:33;;;;;;;5.82;1.20;;;26.30;11.70;;;;;;4769578;30;20562;-66
2021/06/11 08:04:00;;;;;;;4.85;1.30;;;26.30;11.30;;;;;;4768107;30;20565;-66
2021/06/11 08:06:27;;;;;;;7.85;1.20;;;26.30;11.20;;;;;;4769498;30;20099;-66
2021/06/11 08:08:54;;;;;;;6.03;1.08;;;26.30;10.90;;;;;;4769616;30;20515;-65
2021/06/11 08:11:20;;;;;;;3.10;1.10;;;26.30;10.90;;;;;;4768303;30;20095;-65
2021/06/11 08:13:47;;;;;;;5.18;1.20;;;26.20;10.30;;;;;;4769963;30;20546;-66
2021/06/11 08:16:13;;;;;;;8.20;1.42;;;26.20;10.40;;;;;;4772071;30;20171;-67
2021/06/11 08:18:42;;;;;;;5.38;1.00;;;26.30;10.30;;;;;;4772284;30;20080;-66
2021/06/11 08:21:09;;;;;;;5.90;1.40;;;26.30;9.80;;;;;;4772999;30;20131;-66
2021/06/11 08:23:36;;;;;;;4.10;0.95;;;26.30;9.70;;;;;;4772472;30;20080;-66
2021/06/11 08:26:02;;;;;;;3.75;1.10;;;26.30;9.70;;;;;;4771709;30;20539;-66
2021/06/11 08:28:29;;;;;;;5.97;1.20;;;26.30;9.70;;;;;;4773620;30;20740;-66
2021/06/11 08:30:59;;;;;;;8.07;1.13;;;26.20;9.50;;;;;;4770784;30;20084;-66
2021/06/11 08:33:28;;;;;;;6.75;0.93;;;26.20;9.60;;;;;;4768087;30;20093;-66
2021/06/11 08:35:54;;;;;;;4.63;1.05;;;26.20;9.70;;;;;;4769726;30;20141;-66
2021/06/11 08:38:21;;;;;;;4.72;1.27;;;26.20;9.60;;;;;;4768962;30;20183;-66
2021/06/11 08:40:49;;;;;;;6.47;1.27;;;26.20;9.50;;;;;;4769637;30;20104;-66
2021/06/11 08:43:16;;;;;;;9.93;1.10;;;26.20;9.50;;;;;;4767599;30;20073;-66
2021/06/11 08:45:44;;;;;;;8.18;1.48;;;26.20;9.50;;;;;;4769301;30;20428;-66
2021/06/11 08:48:11;;;;;;;9.38;1.60;;;26.20;9.40;;;;;;4769332;30;20080;-66
2021/06/11 08:50:40;;;;;;;7.00;0.98;;;26.20;9.50;;;;;;4767608;30;20172;-65
2021/06/11 08:53:08;;;;;;;4.80;0.90;;;26.20;10.00;;;;;;4767878;30;20380;-66
2021/06/11 08:55:36;;;;;;;11.73;1.65;;;26.20;10.60;;;;;;4769115;30;20089;-66
2021/06/11 08:58:04;;;;;;;8.30;1.58;;;26.10;13.00;;;;;;4767806;30;20079;-66
2021/06/11 09:00:32;;;;;;;7.72;1.45;;;26.00;14.10;;;;;;4767841;30;20147;-67
2021/06/11 09:03:08;;;;;;;5.90;1.13;;;25.80;14.20;;;;;;4768904;30;20574;-67
2021/06/11 09:05:35;;;;;;;4.97;1.42;;;25.70;14.40;;;;;;4768033;30;20087;-67
2021/06/11 09:08:20;;;;;;;3.58;1.20;;;25.60;14.60;;;;;;4768793;30;20072;-68
2021/06/11 09:10:50;;;;;;;5.45;1.00;;;25.50;14.50;;;;;;4769270;30;20092;-66
2021/06/11 09:13:30;;;;;;;3.75;1.10;;;25.50;14.70;;;;;;4768474;30;20094;-66
2021/06/11 09:16:13;;;;;;;2.72;0.95;;;25.30;14.70;;;;;;4768178;30;20197;-66
2021/06/11 09:19:02;;;;;;;2.88;1.10;;;25.30;14.80;;;;;;4767509;30;20575;-65
2021/06/11 09:21:43;;;;;;;11.65;1.23;;;25.20;14.70;;;;;;4767336;30;20101;-65
2021/06/11 09:24:24;;;;;;;6.72;1.20;;;25.20;14.60;;;;;;4766462;30;20116;-66
2021/06/11 09:26:57;;;;;;;3.35;1.20;;;25.10;14.30;;;;;;4768420;30;20163;-66
2021/06/11 09:29:28;;;;;;;7.95;1.48;;;25.10;14.20;;;;;;4769499;30;20550;-66
2021/06/11 09:32:10;;;;;;;4.85;1.20;;;25.10;14.30;;;;;;4771218;30;20419;-66
2021/06/11 09:34:36;;;;;;;6.97;1.20;;;25.10;14.10;;;;;;4770342;30;20624;-65
2021/06/11 09:37:12;;;;;;;4.35;1.20;;;25.10;14.00;;;;;;4771289;30;20116;-65
2021/06/11 09:39:55;;;;;;;3.42;1.10;;;25.10;14.10;;;;;;4749693;30;20279;-66
2021/06/11 09:42:27;;;;;;;10.75;1.20;;;25.00;14.10;;;;;;4771498;30;20087;-67
2021/06/11 09:45:08;;;;;;;7.13;1.05;;;25.10;14.30;;;;;;4768946;30;20199;-66
2021/06/11 09:47:41;;;;;;;8.98;1.42;;;25.00;14.40;;;;;;4770817;30;20439;-66
2021/06/11 09:50:30;;;;;;;5.47;1.10;;;24.90;14.40;;;;;;4771258;30;20084;-66
2021/06/11 09:53:02;;;;;;;7.45;0.90;;;24.90;14.60;;;;;;4771240;30;20523;-66
2021/06/11 09:55:40;;;;;;;8.93;1.33;;;24.90;14.80;;;;;;4771104;30;20539;-66
2021/06/11 09:58:27;;;;;;;4.88;1.20;;;24.80;15.10;;;;;;4771046;30;20111;-67
2021/06/11 10:00:59;;;;;;;7.85;1.73;;;24.80;15.50;;;;;;4770362;30;20146;-66
2021/06/11 10:03:28;;;;;;;6.45;1.33;;;24.80;15.70;;;;;;4771103;30;20080;-66
2021/06/11 10:05:57;;;;;;;7.47;1.20;;;24.80;15.70;;;;;;4783347;30;20428;-67
2021/06/11 10:08:25;;;;;;;9.70;1.52;;;24.70;15.60;;;;;;4770726;30;20076;-66
2021/06/11 10:10:55;;;;;;;5.38;1.30;;;24.70;15.40;;;;;;4771214;30;20080;-66
2021/06/11 10:13:23;;;;;;;8.70;1.10;;;24.70;15.40;;;;;;4769159;30;20087;-65
2021/06/11 10:15:52;;;;;;;7.03;1.20;;;24.60;15.40;;;;;;4769929;30;20154;-66
2021/06/11 10:18:20;;;;;;;5.70;1.00;;;24.60;15.30;;;;;;4770990;30;20108;-65
2021/06/11 10:20:47;;;;;;;7.53;0.90;;;24.60;15.30;;;;;;4770454;30;20100;-65
2021/06/11 10:23:16;;;;;;;7.63;1.58;;;24.50;15.30;;;;;;4770644;30;20088;-65
2021/06/11 10:25:45;;;;;;;8.82;1.30;;;24.50;15.30;;;;;;4770900;30;20134;-66
2021/06/11 10:28:18;;;;;;;9.23;1.20;;;24.50;15.40;;;;;;4770744;30;20112;-66
2021/06/11 10:30:48;;;;;;;7.38;1.23;;;24.50;15.50;;;;;;4769916;30;20481;-66
2021/06/11 10:33:15;;;;;;;11.02;1.40;;;24.50;15.50;;;;;;4770599;30;20083;-66
2021/06/11 10:35:41;;;;;;;7.93;1.10;;;24.40;15.50;;;;;;4770524;30;20108;-66
2021/06/11 10:38:35;;;;;;;6.43;1.50;;;24.40;15.50;;;;;;4770380;30;20123;-66
2021/06/11 10:41:06;;;;;;;5.93;1.15;;;24.30;15.50;;;;;;4767293;30;20204;-66
2021/06/11 10:43:39;;;;;;;7.47;1.20;;;24.40;15.50;;;;;;4770487;30;20396;-66
2021/06/11 10:46:20;;;;;;;6.03;1.23;;;24.40;15.50;;;;;;4769393;30;20103;-65
2021/06/11 10:49:05;;;;;;;8.38;1.50;;;24.40;15.50;;;;;;4769791;30;20126;-65
2021/06/11 10:51:46;;;;;;;6.47;1.15;;;24.40;15.50;;;;;;4770090;30;20092;-66
2021/06/11 10:54:29;;;;;;;5.93;1.30;;;24.30;15.40;;;;;;4770112;30;20083;-66
2021/06/11 10:57:00;;;;;;;5.45;1.38;;;24.40;15.30;;;;;;4769080;30;20092;-66
2021/06/11 10:59:45;;;;;;;5.63;1.60;;;24.40;15.30;;;;;;4782278;30;20543;-66
2021/06/11 11:02:13;;;;;;;7.47;1.27;;;24.40;15.40;;;;;;4768868;30;20107;-66
2021/06/11 11:04:42;;;;;;;5.97;1.38;;;24.40;15.40;;;;;;4768854;30;20087;-66
2021/06/11 11:07:23;;;;;;;8.90;1.40;;;24.40;15.30;;;;;;4769981;30;20189;-66
2021/06/11 11:10:13;;;;;;;5.85;1.60;;;24.40;15.20;;;;;;4770345;30;20080;-66
2021/06/11 11:13:01;;;;;;;4.45;0.95;;;24.50;15.20;;;;;;4769855;30;20523;-67
2021/06/11 11:15:36;;;;;;;3.65;0.98;;;24.40;15.10;;;;;;4769942;30;20527;-67
2021/06/11 11:18:11;;;;;;;4.68;1.10;;;24.50;15.10;;;;;;4768695;30;20596;-67
2021/06/11 11:20:39;;;;;;;9.32;1.25;;;24.50;15.00;;;;;;4769765;30;20110;-66
2021/06/11 11:23:09;;;;;;;3.08;0.98;;;24.50;15.10;;;;;;4770117;30;20087;-67
2021/06/11 11:25:36;;;;;;;5.57;1.20;;;24.50;15.10;;;;;;4769387;30;20091;-67
2021/06/11 11:28:06;;;;;;;8.25;1.38;;;24.50;15.30;;;;;;4768761;30;20427;-67
2021/06/11 11:30:33;;;;;;;4.88;1.25;;;24.50;15.00;;;;;;4769153;30;20544;-67
2021/06/11 11:33:01;;;;;;;2.28;0.98;;;24.50;15.10;;;;;;4768114;30;20085;-67
2021/06/11 11:35:32;;;;;;;5.53;1.42;;;24.50;15.10;;;;;;4769457;30;20550;-66
2021/06/11 11:38:02;;;;;;;5.18;1.25;;;24.50;15.30;;;;;;4769796;30;20522;-66
2021/06/11 11:40:29;;;;;;;7.75;1.17;;;24.50;15.60;;;;;;4768943;30;20107;-67
2021/06/11 11:42:58;;;;;;;10.68;1.75;;;24.50;16.30;;;;;;4768137;30;20439;-66
2021/06/11 11:45:27;;;;;;;6.15;1.25;;;24.50;16.00;;;;;;4769479;30;20107;-66
2021/06/11 11:47:56;;;;;;;7.00;1.10;;;24.40;16.10;;;;;;4769409;30;20137;-66
2021/06/11 11:50:23;;;;;;;9.73;1.40;;;24.40;16.20;;;;;;4769660;30;20080;-66
2021/06/11 11:52:49;;;;;;;5.35;1.45;;;24.40;16.40;;;;;;4768770;30;20076;-66
2021/06/11 11:55:16;;;;;;;6.43;1.25;;;24.30;16.50;;;;;;4769201;30;20503;-66
2021/06/11 11:57:43;;;;;;;7.25;1.48;;;24.30;16.80;;;;;;4769301;30;20109;-67
2021/06/11 12:00:12;;;;;;;12.05;1.60;;;24.30;17.20;;;;;;4769182;30;20501;-66
2021/06/11 12:02:38;;;;;;;14.15;1.33;;;24.20;17.40;;;;;;4768421;30;20080;-65
2021/06/11 12:05:07;;;;;;;10.48;1.20;;;24.10;17.70;;;;;;4768705;30;20080;-66
2021/06/11 12:07:34;;;;;;;7.45;1.70;;;24.10;17.90;;;;;;4768229;30;20080;-66
2021/06/11 12:10:01;;;;;;;9.15;1.67;;;24.00;18.00;;;;;;4769623;30;20087;-65
2021/06/11 12:12:27;;;;;;;10.57;1.45;;;23.90;18.50;;;;;;4768354;30;20549;-65
2021/06/11 12:14:54;;;;;;;4.43;1.50;;;23.80;18.10;;;;;;4768273;30;20080;-65
2021/06/11 12:17:22;;;;;;;8.88;1.50;;;23.80;18.20;;;;;;4769779;30;20143;-65
2021/06/11 12:19:48;;;;;;;9.45;1.50;;;23.80;18.30;;;;;;4767742;30;20098;-67
2021/06/11 12:22:16;;;;;;;5.57;1.35;;;23.80;18.40;;;;;;4769447;30;20072;-65
2021/06/11 12:24:43;;;;;;;5.65;1.30;;;23.60;18.50;;;;;;4768759;30;20096;-65
2021/06/11 12:27:10;;;;;;;6.72;1.50;;;23.70;19.10;;;;;;4769104;30;20175;-65
2021/06/11 12:29:37;;;;;;;7.50;1.80;;;23.70;19.30;;;;;;4769136;30;20096;-66
2021/06/11 12:32:04;;;;;;;10.25;1.67;;;23.60;19.10;;;;;;4768712;30;20076;-66
2021/06/11 12:34:31;;;;;;;10.02;1.42;;;23.60;19.10;;;;;;4768849;30;20080;-66
2021/06/11 12:36:57;;;;;;;10.15;1.73;;;23.40;19.20;;;;;;4767181;30;20254;-66
2021/06/11 12:39:24;;;;;;;9.07;1.75;;;23.40;19.60;;;;;;4767651;30;20134;-66
2021/06/11 12:41:57;;;;;;;9.35;1.92;;;23.40;20.10;;;;;;4767174;30;20124;-66
2021/06/11 12:44:25;;;;;;;8.95;1.88;;;23.40;20.10;;;;;;4768932;30;20565;-66
2021/06/11 12:46:56;;;;;;;8.65;1.52;;;23.40;20.30;;;;;;4767994;30;20108;-66
2021/06/11 12:49:27;;;;;;;9.65;1.80;;;23.40;21.30;;;;;;4769010;30;20076;-66
2021/06/11 12:51:54;;;;;;;13.15;2.13;;;23.30;21.50;;;;;;4768906;30;20159;-66
2021/06/11 12:54:20;;;;;;;13.18;1.75;;;23.40;21.30;;;;;;4768609;30;20095;-65
2021/06/11 12:56:47;;;;;;;14.75;2.10;;;23.40;21.30;;;;;;4768731;30;20146;-66
2021/06/11 12:59:13;;;;;;;6.30;1.70;;;23.40;23.20;;;;;;4768464;30;20080;-66